createdAt,value
2022-08-19T00:04:16.476Z,18.2
2022-08-19T00:24:17.988Z,18
2022-08-19T00:34:18.845Z,17.9
2022-08-19T01:04:21.540Z,17.8
2022-08-19T01:34:23.508Z,17.5
2022-08-19T01:44:24.077Z,17.6
2022-08-19T01:54:27.386Z,17.5
2022-08-19T02:04:25.135Z,17.3
2022-08-19T02:14:25.556Z,17.3
2022-08-19T02:24:26.377Z,17.2
2022-08-19T02:34:27.427Z,17.2
2022-08-19T02:44:30.729Z,17.2
2022-08-19T02:54:28.879Z,17.1
2022-08-19T03:04:29.857Z,17
2022-08-19T03:14:30.471Z,17
2022-08-19T03:24:31.338Z,17
2022-08-19T03:34:31.514Z,16.9
2022-08-19T03:54:32.889Z,17
2022-08-19T04:04:33.708Z,16.8
2022-08-19T04:14:34.124Z,16.8
2022-08-19T04:24:34.474Z,16.8
2022-08-19T04:34:34.952Z,16.6
2022-08-19T04:44:35.947Z,16.8
2022-08-19T04:54:38.060Z,17
2022-08-19T05:34:39.631Z,17.7
2022-08-19T05:37:17.997Z,17.8
2022-08-19T05:44:48.480Z,18
2022-08-19T06:04:49.587Z,18.4
2022-08-19T06:15:00.590Z,18.5
2022-08-19T06:24:50.498Z,18.9
2022-08-19T06:34:50.950Z,19.1
2022-08-19T06:54:55.592Z,20.1
2022-08-19T07:04:52.993Z,20.7
2022-08-19T07:14:53.886Z,21
2022-08-19T07:24:54.525Z,21.3
2022-08-19T07:34:55.292Z,21.6
2022-08-19T07:44:55.530Z,21.5
2022-08-19T07:54:55.910Z,21.9
2022-08-19T08:04:56.862Z,22.4
2022-08-19T08:14:57.887Z,22.4
2022-08-19T08:24:58.358Z,22.7
2022-08-19T08:34:58.929Z,23.2
2022-08-19T08:44:59.211Z,23.4
2022-08-19T08:54:59.722Z,23.7
2022-08-19T09:05:00.208Z,23.6
2022-08-19T09:15:00.815Z,23.6
2022-08-19T09:25:01.481Z,24.4
2022-08-19T09:45:04.942Z,24.4
2022-08-19T09:55:07.174Z,24.1
2022-08-19T10:05:04.113Z,25
2022-08-19T10:15:04.578Z,25.1
2022-08-19T10:25:05.463Z,24.9
2022-08-19T10:35:06.252Z,24.8
2022-08-19T10:45:06.585Z,24.9
2022-08-19T10:55:08.116Z,24.9
2022-08-19T11:05:12.829Z,25.3
2022-08-19T11:15:07.087Z,25.5
2022-08-19T11:35:08.087Z,25.6
2022-08-19T11:45:08.774Z,25.9
2022-08-19T11:55:09.406Z,26.5
2022-08-19T12:05:12.471Z,26.1
2022-08-19T12:35:10.959Z,26.5
2022-08-19T12:45:11.448Z,26.5
2022-08-19T12:55:11.940Z,27.1
2022-08-19T13:15:12.750Z,27.6
2022-08-19T13:25:13.736Z,27.8
2022-08-19T13:55:14.801Z,27.8
2022-08-19T14:05:15.749Z,27.1
2022-08-19T14:15:16.182Z,27.3
2022-08-19T14:25:16.708Z,27.6
2022-08-19T14:35:17.773Z,28.1
2022-08-19T14:45:18.660Z,27.5
2022-08-19T14:55:19.024Z,27.4
2022-08-19T15:15:20.207Z,27.2
2022-08-19T15:25:21.253Z,27.5
2022-08-19T15:35:22.144Z,27.7
2022-08-19T15:45:23.099Z,26.9
2022-08-19T15:55:32.393Z,26.9
2022-08-19T16:05:24.053Z,26.5
2022-08-19T16:15:24.618Z,26.6
2022-08-19T16:25:25.622Z,26.5
2022-08-19T16:35:26.319Z,26.5
2022-08-19T16:55:28.137Z,26.5
2022-08-19T17:05:28.724Z,26.2
2022-08-19T17:15:28.806Z,26.3
2022-08-19T17:25:29.197Z,25.9
2022-08-19T17:35:30.098Z,25.7
2022-08-19T17:45:30.522Z,25.6
2022-08-19T17:55:31.113Z,25.6
2022-08-19T18:05:31.566Z,25.5
2022-08-19T18:15:32.633Z,25.5
2022-08-19T18:25:33.597Z,25.2
2022-08-19T18:35:34.329Z,25
2022-08-19T18:55:35.468Z,24.4
2022-08-19T19:05:35.971Z,24.1
2022-08-19T19:25:44.897Z,23.6
2022-08-19T19:35:37.342Z,23.2
2022-08-19T19:55:38.527Z,22.7
2022-08-19T20:05:39.093Z,22.6
2022-08-19T20:15:42.481Z,22.5
2022-08-19T20:25:39.732Z,22.4
2022-08-19T20:35:39.924Z,22.2
2022-08-19T20:45:40.284Z,22.2
2022-08-19T20:55:40.985Z,22.2
2022-08-19T21:05:41.589Z,22.1
2022-08-19T21:15:42.625Z,22.1
2022-08-19T21:25:43.602Z,22.2
2022-08-19T21:35:43.369Z,22.1
2022-08-19T21:45:43.554Z,22.1
2022-08-19T21:55:43.823Z,22
2022-08-19T22:05:44.815Z,21.9
2022-08-19T22:15:45.241Z,21.9
2022-08-19T22:25:45.519Z,21.8
2022-08-19T22:35:45.817Z,21.7
2022-08-19T22:55:46.771Z,21.6
2022-08-19T23:05:47.017Z,21.4
2022-08-19T23:15:47.820Z,21.2
2022-08-19T23:25:48.773Z,21
2022-08-19T23:35:49.539Z,20.8
2022-08-19T23:45:51.151Z,19.6
2022-08-19T23:55:50.099Z,19
